Terminal Aerodrome Forecast
Issued by NWS Upton, NY

Home | Current Version | Previous Version | Text Only | Print | Product List | Glossary On
Versions: 1 2 3 4 5 6 7 8 9 10 11 12 13 14 15 16 17 18 19 20 21 22 23 24 25 26 27 28 29 30 31 32 33 34 35 36
000
FTUS41 KOKX 292009 AAA
TAFLGA
TAF AMD
KLGA 292009Z 2920/3018 17009KT P6SM FEW050 SCT250
     FM300100 17007KT P6SM FEW250
     FM300800 17006KT 2SM BR SCT005 BKN010
     FM301300 18010KT P6SM SCT015
     FM301700 18012KT P6SM SCT035=

USA.gov is the U.S. government's official web portal to all federal, state and local government web resources and services.